sensor_id;sensor_type;location;lat;lon;timestamp;temperature;humidity
19898;DHT22;10111;50.814;4.572;2022-07-19T00:00:26;19.70;99.90
19898;DHT22;10111;50.814;4.572;2022-07-19T00:02:53;19.60;99.90
19898;DHT22;10111;50.814;4.572;2022-07-19T00:05:19;19.60;99.90
19898;DHT22;10111;50.814;4.572;2022-07-19T00:07:45;19.60;99.90
19898;DHT22;10111;50.814;4.572;2022-07-19T00:10:12;19.60;99.90
19898;DHT22;10111;50.814;4.572;2022-07-19T00:12:39;19.50;99.90
19898;DHT22;10111;50.814;4.572;2022-07-19T00:15:08;19.50;99.90
19898;DHT22;10111;50.814;4.572;2022-07-19T00:17:34;19.40;99.90
19898;DHT22;10111;50.814;4.572;2022-07-19T00:20:00;19.40;99.90
19898;DHT22;10111;50.814;4.572;2022-07-19T00:22:26;19.40;99.90
19898;DHT22;10111;50.814;4.572;2022-07-19T00:24:51;19.40;99.90
19898;DHT22;10111;50.814;4.572;2022-07-19T00:27:17;19.30;99.90
19898;DHT22;10111;50.814;4.572;2022-07-19T00:29:42;19.30;99.90
19898;DHT22;10111;50.814;4.572;2022-07-19T00:32:08;19.30;99.90
19898;DHT22;10111;50.814;4.572;2022-07-19T00:34:34;19.30;99.90
19898;DHT22;10111;50.814;4.572;2022-07-19T00:36:59;19.30;99.90
19898;DHT22;10111;50.814;4.572;2022-07-19T00:39:25;19.20;99.90
19898;DHT22;10111;50.814;4.572;2022-07-19T00:41:51;19.20;99.90
19898;DHT22;10111;50.814;4.572;2022-07-19T00:44:16;19.10;99.90
19898;DHT22;10111;50.814;4.572;2022-07-19T00:46:42;19.10;99.90
19898;DHT22;10111;50.814;4.572;2022-07-19T00:49:08;19.00;99.90
19898;DHT22;10111;50.814;4.572;2022-07-19T00:51:35;19.00;99.90
19898;DHT22;10111;50.814;4.572;2022-07-19T00:54:03;19.00;99.90
19898;DHT22;10111;50.814;4.572;2022-07-19T00:56:31;19.00;99.90
19898;DHT22;10111;50.814;4.572;2022-07-19T00:58:58;18.90;99.90
19898;DHT22;10111;50.814;4.572;2022-07-19T01:01:24;18.80;99.90
19898;DHT22;10111;50.814;4.572;2022-07-19T01:03:51;18.90;99.90
19898;DHT22;10111;50.814;4.572;2022-07-19T01:06:17;18.80;99.90
19898;DHT22;10111;50.814;4.572;2022-07-19T01:08:43;18.80;99.90
19898;DHT22;10111;50.814;4.572;2022-07-19T01:11:08;18.80;99.90
19898;DHT22;10111;50.814;4.572;2022-07-19T01:13:34;18.70;99.90
19898;DHT22;10111;50.814;4.572;2022-07-19T01:16:00;18.60;99.90
19898;DHT22;10111;50.814;4.572;2022-07-19T01:18:26;18.70;99.90
19898;DHT22;10111;50.814;4.572;2022-07-19T01:20:52;18.70;99.90
19898;DHT22;10111;50.814;4.572;2022-07-19T01:23:17;18.60;99.90
19898;DHT22;10111;50.814;4.572;2022-07-19T01:25:43;18.60;99.90
19898;DHT22;10111;50.814;4.572;2022-07-19T01:28:09;18.60;99.90
19898;DHT22;10111;50.814;4.572;2022-07-19T01:30:36;18.60;99.90
19898;DHT22;10111;50.814;4.572;2022-07-19T01:33:02;18.50;99.90
19898;DHT22;10111;50.814;4.572;2022-07-19T01:35:27;18.50;99.90
19898;DHT22;10111;50.814;4.572;2022-07-19T01:37:54;18.40;99.90
19898;DHT22;10111;50.814;4.572;2022-07-19T01:40:21;18.40;99.90
19898;DHT22;10111;50.814;4.572;2022-07-19T01:42:47;18.40;99.90
19898;DHT22;10111;50.814;4.572;2022-07-19T01:45:14;18.40;99.90
19898;DHT22;10111;50.814;4.572;2022-07-19T01:47:40;18.40;99.90
19898;DHT22;10111;50.814;4.572;2022-07-19T01:50:07;18.50;99.90
19898;DHT22;10111;50.814;4.572;2022-07-19T01:52:33;18.40;99.90
19898;DHT22;10111;50.814;4.572;2022-07-19T01:54:59;18.40;99.90
19898;DHT22;10111;50.814;4.572;2022-07-19T01:57:25;18.40;99.90
19898;DHT22;10111;50.814;4.572;2022-07-19T01:59:51;18.30;99.90
19898;DHT22;10111;50.814;4.572;2022-07-19T02:02:16;18.40;99.90
19898;DHT22;10111;50.814;4.572;2022-07-19T02:04:42;18.30;99.90
19898;DHT22;10111;50.814;4.572;2022-07-19T02:07:07;18.30;99.90
19898;DHT22;10111;50.814;4.572;2022-07-19T02:09:33;18.30;99.90
19898;DHT22;10111;50.814;4.572;2022-07-19T02:11:59;18.20;99.90
19898;DHT22;10111;50.814;4.572;2022-07-19T02:14:25;18.20;99.90
19898;DHT22;10111;50.814;4.572;2022-07-19T02:16:51;18.20;99.90
19898;DHT22;10111;50.814;4.572;2022-07-19T02:19:16;18.20;99.90
19898;DHT22;10111;50.814;4.572;2022-07-19T02:21:42;18.10;99.90
19898;DHT22;10111;50.814;4.572;2022-07-19T02:24:08;18.10;99.90
19898;DHT22;10111;50.814;4.572;2022-07-19T02:26:35;18.10;99.90
19898;DHT22;10111;50.814;4.572;2022-07-19T02:29:01;18.00;99.90
19898;DHT22;10111;50.814;4.572;2022-07-19T02:31:27;18.00;99.90
19898;DHT22;10111;50.814;4.572;2022-07-19T02:33:52;18.00;99.90
19898;DHT22;10111;50.814;4.572;2022-07-19T02:36:18;18.00;99.90
19898;DHT22;10111;50.814;4.572;2022-07-19T02:38:44;18.00;99.90
19898;DHT22;10111;50.814;4.572;2022-07-19T02:41:10;18.00;99.90
19898;DHT22;10111;50.814;4.572;2022-07-19T02:43:37;17.90;99.90
19898;DHT22;10111;50.814;4.572;2022-07-19T02:46:02;17.90;99.90
19898;DHT22;10111;50.814;4.572;2022-07-19T02:48:28;17.90;99.90
19898;DHT22;10111;50.814;4.572;2022-07-19T02:50:54;17.90;99.90
19898;DHT22;10111;50.814;4.572;2022-07-19T02:53:19;17.80;99.90
19898;DHT22;10111;50.814;4.572;2022-07-19T02:55:45;17.90;99.90
19898;DHT22;10111;50.814;4.572;2022-07-19T02:58:11;17.80;99.90
19898;DHT22;10111;50.814;4.572;2022-07-19T03:00:36;17.90;99.90
19898;DHT22;10111;50.814;4.572;2022-07-19T03:03:02;17.90;99.90
19898;DHT22;10111;50.814;4.572;2022-07-19T03:05:47;17.80;99.90
19898;DHT22;10111;50.814;4.572;2022-07-19T03:08:13;17.90;99.90
19898;DHT22;10111;50.814;4.572;2022-07-19T03:10:39;17.80;99.90
19898;DHT22;10111;50.814;4.572;2022-07-19T03:13:04;17.70;99.90
19898;DHT22;10111;50.814;4.572;2022-07-19T03:15:30;17.70;99.90
19898;DHT22;10111;50.814;4.572;2022-07-19T03:17:56;17.80;99.90
19898;DHT22;10111;50.814;4.572;2022-07-19T03:20:22;17.70;99.90
19898;DHT22;10111;50.814;4.572;2022-07-19T03:22:48;17.70;99.90
19898;DHT22;10111;50.814;4.572;2022-07-19T03:25:13;17.60;99.90
19898;DHT22;10111;50.814;4.572;2022-07-19T03:27:39;17.70;99.90
19898;DHT22;10111;50.814;4.572;2022-07-19T03:30:05;17.60;99.90
19898;DHT22;10111;50.814;4.572;2022-07-19T03:32:31;17.60;99.90
19898;DHT22;10111;50.814;4.572;2022-07-19T03:34:57;17.60;99.90
19898;DHT22;10111;50.814;4.572;2022-07-19T03:37:23;17.60;99.90
19898;DHT22;10111;50.814;4.572;2022-07-19T03:39:48;17.60;99.90
19898;DHT22;10111;50.814;4.572;2022-07-19T03:42:14;17.50;99.90
19898;DHT22;10111;50.814;4.572;2022-07-19T03:44:39;17.50;99.90
19898;DHT22;10111;50.814;4.572;2022-07-19T03:47:05;17.40;99.90
19898;DHT22;10111;50.814;4.572;2022-07-19T03:49:31;17.40;99.90
19898;DHT22;10111;50.814;4.572;2022-07-19T03:51:56;17.40;99.90
19898;DHT22;10111;50.814;4.572;2022-07-19T03:54:22;17.40;99.90
19898;DHT22;10111;50.814;4.572;2022-07-19T03:56:48;17.40;99.90
19898;DHT22;10111;50.814;4.572;2022-07-19T03:59:14;17.40;99.90
19898;DHT22;10111;50.814;4.572;2022-07-19T04:01:40;17.40;99.90
19898;DHT22;10111;50.814;4.572;2022-07-19T04:04:06;17.40;99.90
19898;DHT22;10111;50.814;4.572;2022-07-19T04:06:31;17.40;99.90
19898;DHT22;10111;50.814;4.572;2022-07-19T04:08:57;17.30;99.90
19898;DHT22;10111;50.814;4.572;2022-07-19T04:11:23;17.40;99.90
19898;DHT22;10111;50.814;4.572;2022-07-19T04:13:48;17.40;99.90
19898;DHT22;10111;50.814;4.572;2022-07-19T04:16:14;17.30;99.90
19898;DHT22;10111;50.814;4.572;2022-07-19T04:18:40;17.30;99.90
19898;DHT22;10111;50.814;4.572;2022-07-19T04:21:05;17.40;99.90
19898;DHT22;10111;50.814;4.572;2022-07-19T04:23:31;17.40;99.90
19898;DHT22;10111;50.814;4.572;2022-07-19T04:25:57;17.50;99.90
19898;DHT22;10111;50.814;4.572;2022-07-19T04:28:23;17.50;99.90
19898;DHT22;10111;50.814;4.572;2022-07-19T04:30:49;17.60;99.90
19898;DHT22;10111;50.814;4.572;2022-07-19T04:33:16;17.60;99.90
19898;DHT22;10111;50.814;4.572;2022-07-19T04:35:43;17.70;99.90
19898;DHT22;10111;50.814;4.572;2022-07-19T04:38:09;17.80;99.90
19898;DHT22;10111;50.814;4.572;2022-07-19T04:40:34;17.90;99.90
19898;DHT22;10111;50.814;4.572;2022-07-19T04:43:00;17.90;99.90
19898;DHT22;10111;50.814;4.572;2022-07-19T04:45:26;18.00;99.90
19898;DHT22;10111;50.814;4.572;2022-07-19T04:47:53;18.00;99.90
19898;DHT22;10111;50.814;4.572;2022-07-19T04:50:18;18.00;99.90
19898;DHT22;10111;50.814;4.572;2022-07-19T04:52:44;18.10;99.90
19898;DHT22;10111;50.814;4.572;2022-07-19T04:55:10;18.10;99.90
19898;DHT22;10111;50.814;4.572;2022-07-19T04:57:36;18.20;99.90
19898;DHT22;10111;50.814;4.572;2022-07-19T05:00:04;18.30;99.90
19898;DHT22;10111;50.814;4.572;2022-07-19T05:02:30;18.40;99.90
19898;DHT22;10111;50.814;4.572;2022-07-19T05:04:55;18.50;99.90
19898;DHT22;10111;50.814;4.572;2022-07-19T05:07:21;18.50;99.90
19898;DHT22;10111;50.814;4.572;2022-07-19T05:09:47;18.70;99.90
19898;DHT22;10111;50.814;4.572;2022-07-19T05:12:12;18.80;99.90
19898;DHT22;10111;50.814;4.572;2022-07-19T05:14:38;18.90;99.90
19898;DHT22;10111;50.814;4.572;2022-07-19T05:17:04;19.00;99.90
19898;DHT22;10111;50.814;4.572;2022-07-19T05:19:29;19.10;99.90
19898;DHT22;10111;50.814;4.572;2022-07-19T05:21:55;19.30;99.90
19898;DHT22;10111;50.814;4.572;2022-07-19T05:24:20;19.50;99.90
19898;DHT22;10111;50.814;4.572;2022-07-19T05:26:46;19.70;99.90
19898;DHT22;10111;50.814;4.572;2022-07-19T05:29:11;19.90;99.90
19898;DHT22;10111;50.814;4.572;2022-07-19T05:31:37;20.00;99.90
19898;DHT22;10111;50.814;4.572;2022-07-19T05:34:03;20.20;99.90
19898;DHT22;10111;50.814;4.572;2022-07-19T05:36:29;20.30;99.90
19898;DHT22;10111;50.814;4.572;2022-07-19T05:38:55;20.50;99.90
19898;DHT22;10111;50.814;4.572;2022-07-19T05:41:21;20.50;99.90
19898;DHT22;10111;50.814;4.572;2022-07-19T05:43:48;20.70;99.90
19898;DHT22;10111;50.814;4.572;2022-07-19T05:46:14;20.80;99.90
19898;DHT22;10111;50.814;4.572;2022-07-19T05:48:39;21.00;99.90
19898;DHT22;10111;50.814;4.572;2022-07-19T05:51:05;21.20;99.90
19898;DHT22;10111;50.814;4.572;2022-07-19T05:53:31;21.40;99.90
19898;DHT22;10111;50.814;4.572;2022-07-19T05:55:57;21.70;99.90
19898;DHT22;10111;50.814;4.572;2022-07-19T05:58:22;21.80;99.90
19898;DHT22;10111;50.814;4.572;2022-07-19T06:00:50;22.00;99.90
19898;DHT22;10111;50.814;4.572;2022-07-19T06:03:34;22.20;99.90
19898;DHT22;10111;50.814;4.572;2022-07-19T06:06:00;22.50;99.90
19898;DHT22;10111;50.814;4.572;2022-07-19T06:08:25;22.60;99.90
19898;DHT22;10111;50.814;4.572;2022-07-19T06:10:54;22.80;99.90
19898;DHT22;10111;50.814;4.572;2022-07-19T06:13:20;23.00;99.90
19898;DHT22;10111;50.814;4.572;2022-07-19T06:15:45;23.20;99.90
19898;DHT22;10111;50.814;4.572;2022-07-19T06:18:11;23.30;99.90
19898;DHT22;10111;50.814;4.572;2022-07-19T06:20:37;23.50;99.90
19898;DHT22;10111;50.814;4.572;2022-07-19T06:23:02;23.70;99.90
19898;DHT22;10111;50.814;4.572;2022-07-19T06:25:28;23.70;99.90
19898;DHT22;10111;50.814;4.572;2022-07-19T06:27:54;23.70;99.90
19898;DHT22;10111;50.814;4.572;2022-07-19T06:30:19;23.90;99.90
19898;DHT22;10111;50.814;4.572;2022-07-19T06:32:45;24.10;99.90
19898;DHT22;10111;50.814;4.572;2022-07-19T06:35:10;24.20;99.90
19898;DHT22;10111;50.814;4.572;2022-07-19T06:37:36;24.30;99.90
19898;DHT22;10111;50.814;4.572;2022-07-19T06:40:02;24.30;99.90
19898;DHT22;10111;50.814;4.572;2022-07-19T06:42:28;24.40;99.90
19898;DHT22;10111;50.814;4.572;2022-07-19T06:44:54;24.70;99.90
19898;DHT22;10111;50.814;4.572;2022-07-19T06:47:19;24.80;99.90
19898;DHT22;10111;50.814;4.572;2022-07-19T06:49:45;25.00;99.90
19898;DHT22;10111;50.814;4.572;2022-07-19T06:52:11;25.40;99.90
19898;DHT22;10111;50.814;4.572;2022-07-19T06:54:36;25.70;99.90
19898;DHT22;10111;50.814;4.572;2022-07-19T06:57:02;25.90;99.90
19898;DHT22;10111;50.814;4.572;2022-07-19T06:59:27;26.00;99.90
19898;DHT22;10111;50.814;4.572;2022-07-19T07:01:53;26.10;99.90
19898;DHT22;10111;50.814;4.572;2022-07-19T07:04:19;26.40;99.90
19898;DHT22;10111;50.814;4.572;2022-07-19T07:06:45;26.70;99.90
19898;DHT22;10111;50.814;4.572;2022-07-19T07:09:10;26.90;99.90
19898;DHT22;10111;50.814;4.572;2022-07-19T07:11:36;27.30;99.90
19898;DHT22;10111;50.814;4.572;2022-07-19T07:14:02;27.40;99.90
19898;DHT22;10111;50.814;4.572;2022-07-19T07:16:27;27.80;99.90
19898;DHT22;10111;50.814;4.572;2022-07-19T07:18:53;28.00;99.90
19898;DHT22;10111;50.814;4.572;2022-07-19T07:21:18;28.30;99.90
19898;DHT22;10111;50.814;4.572;2022-07-19T07:23:44;28.50;99.90
19898;DHT22;10111;50.814;4.572;2022-07-19T07:26:10;28.90;99.90
19898;DHT22;10111;50.814;4.572;2022-07-19T07:28:37;29.30;99.90
19898;DHT22;10111;50.814;4.572;2022-07-19T07:31:02;29.50;99.90
19898;DHT22;10111;50.814;4.572;2022-07-19T07:33:28;29.70;99.90
19898;DHT22;10111;50.814;4.572;2022-07-19T07:35:53;30.00;99.90
19898;DHT22;10111;50.814;4.572;2022-07-19T07:38:19;30.30;99.90
19898;DHT22;10111;50.814;4.572;2022-07-19T07:40:45;30.20;99.90
19898;DHT22;10111;50.814;4.572;2022-07-19T07:43:11;30.60;99.90
19898;DHT22;10111;50.814;4.572;2022-07-19T07:45:37;30.80;99.90
19898;DHT22;10111;50.814;4.572;2022-07-19T07:48:03;31.20;99.90
19898;DHT22;10111;50.814;4.572;2022-07-19T07:50:28;31.40;99.90
19898;DHT22;10111;50.814;4.572;2022-07-19T07:52:54;31.40;97.50
19898;DHT22;10111;50.814;4.572;2022-07-19T07:55:20;31.60;98.50
19898;DHT22;10111;50.814;4.572;2022-07-19T07:57:46;31.90;95.20
19898;DHT22;10111;50.814;4.572;2022-07-19T08:00:12;32.40;96.90
19898;DHT22;10111;50.814;4.572;2022-07-19T08:02:43;32.70;97.60
19898;DHT22;10111;50.814;4.572;2022-07-19T08:05:10;33.10;96.40
19898;DHT22;10111;50.814;4.572;2022-07-19T08:07:36;33.90;95.20
19898;DHT22;10111;50.814;4.572;2022-07-19T08:10:04;34.40;95.20
19898;DHT22;10111;50.814;4.572;2022-07-19T08:12:31;34.60;92.80
19898;DHT22;10111;50.814;4.572;2022-07-19T08:14:57;34.80;90.90
19898;DHT22;10111;50.814;4.572;2022-07-19T08:17:23;34.80;90.20
19898;DHT22;10111;50.814;4.572;2022-07-19T08:19:48;35.00;89.50
19898;DHT22;10111;50.814;4.572;2022-07-19T08:22:15;35.60;90.40
19898;DHT22;10111;50.814;4.572;2022-07-19T08:24:41;35.50;90.30
19898;DHT22;10111;50.814;4.572;2022-07-19T08:27:07;35.60;87.10
19898;DHT22;10111;50.814;4.572;2022-07-19T08:29:32;36.00;87.60
19898;DHT22;10111;50.814;4.572;2022-07-19T08:31:58;36.40;84.90
19898;DHT22;10111;50.814;4.572;2022-07-19T08:34:24;36.50;83.30
19898;DHT22;10111;50.814;4.572;2022-07-19T08:36:49;37.00;83.30
19898;DHT22;10111;50.814;4.572;2022-07-19T08:39:15;37.10;77.50
19898;DHT22;10111;50.814;4.572;2022-07-19T08:41:43;37.10;77.80
19898;DHT22;10111;50.814;4.572;2022-07-19T08:44:13;37.60;77.80
19898;DHT22;10111;50.814;4.572;2022-07-19T08:46:40;37.60;75.60
19898;DHT22;10111;50.814;4.572;2022-07-19T08:49:06;37.90;72.00
19898;DHT22;10111;50.814;4.572;2022-07-19T08:51:34;38.10;72.50
19898;DHT22;10111;50.814;4.572;2022-07-19T08:54:00;38.10;71.40
19898;DHT22;10111;50.814;4.572;2022-07-19T08:56:27;38.50;70.90
19898;DHT22;10111;50.814;4.572;2022-07-19T08:59:11;39.00;69.80
19898;DHT22;10111;50.814;4.572;2022-07-19T09:01:38;39.50;68.20
19898;DHT22;10111;50.814;4.572;2022-07-19T09:04:14;39.40;66.80
19898;DHT22;10111;50.814;4.572;2022-07-19T09:09:06;39.10;62.90
19898;DHT22;10111;50.814;4.572;2022-07-19T09:11:33;38.60;59.70
19898;DHT22;10111;50.814;4.572;2022-07-19T09:14:09;39.00;62.10
19898;DHT22;10111;50.814;4.572;2022-07-19T09:19:27;39.60;58.20
19898;DHT22;10111;50.814;4.572;2022-07-19T09:22:07;39.70;60.00
19898;DHT22;10111;50.814;4.572;2022-07-19T09:24:39;39.70;56.50
19898;DHT22;10111;50.814;4.572;2022-07-19T09:27:09;39.20;56.30
19898;DHT22;10111;50.814;4.572;2022-07-19T09:29:42;38.90;57.50
19898;DHT22;10111;50.814;4.572;2022-07-19T09:34:59;39.30;57.20
19898;DHT22;10111;50.814;4.572;2022-07-19T09:37:31;39.60;56.30
19898;DHT22;10111;50.814;4.572;2022-07-19T09:40:03;39.80;55.50
19898;DHT22;10111;50.814;4.572;2022-07-19T09:45:08;39.60;54.00
19898;DHT22;10111;50.814;4.572;2022-07-19T09:47:39;38.90;53.80
19898;DHT22;10111;50.814;4.572;2022-07-19T09:50:12;38.60;56.40
19898;DHT22;10111;50.814;4.572;2022-07-19T09:52:40;38.30;56.40
19898;DHT22;10111;50.814;4.572;2022-07-19T09:55:07;37.80;56.00
19898;DHT22;10111;50.814;4.572;2022-07-19T09:57:39;37.30;55.10
19898;DHT22;10111;50.814;4.572;2022-07-19T10:00:06;36.70;54.50
19898;DHT22;10111;50.814;4.572;2022-07-19T10:02:36;36.40;56.30
19898;DHT22;10111;50.814;4.572;2022-07-19T10:05:05;36.10;56.60
19898;DHT22;10111;50.814;4.572;2022-07-19T10:07:34;35.80;56.50
19898;DHT22;10111;50.814;4.572;2022-07-19T10:10:04;35.60;57.10
19898;DHT22;10111;50.814;4.572;2022-07-19T10:12:31;35.50;57.90
19898;DHT22;10111;50.814;4.572;2022-07-19T10:14:57;35.40;56.60
19898;DHT22;10111;50.814;4.572;2022-07-19T10:17:30;35.20;57.70
19898;DHT22;10111;50.814;4.572;2022-07-19T10:19:58;35.20;58.30
19898;DHT22;10111;50.814;4.572;2022-07-19T10:22:26;35.00;56.00
19898;DHT22;10111;50.814;4.572;2022-07-19T10:24:57;34.90;56.90
19898;DHT22;10111;50.814;4.572;2022-07-19T10:32:30;34.70;58.60
19898;DHT22;10111;50.814;4.572;2022-07-19T10:37:42;34.70;55.90
19898;DHT22;10111;50.814;4.572;2022-07-19T10:40:08;34.60;55.00
19898;DHT22;10111;50.814;4.572;2022-07-19T10:42:34;34.50;54.60
19898;DHT22;10111;50.814;4.572;2022-07-19T10:50:11;34.50;54.10
19898;DHT22;10111;50.814;4.572;2022-07-19T10:52:42;34.50;54.70
19898;DHT22;10111;50.814;4.572;2022-07-19T10:58:12;34.40;53.60
19898;DHT22;10111;50.814;4.572;2022-07-19T11:05:54;34.40;57.00
19898;DHT22;10111;50.814;4.572;2022-07-19T11:08:40;34.40;58.20
19898;DHT22;10111;50.814;4.572;2022-07-19T11:11:07;34.40;56.60
19898;DHT22;10111;50.814;4.572;2022-07-19T11:13:37;34.40;55.40
19898;DHT22;10111;50.814;4.572;2022-07-19T11:16:04;34.30;57.60
19898;DHT22;10111;50.814;4.572;2022-07-19T11:18:31;34.30;57.00
19898;DHT22;10111;50.814;4.572;2022-07-19T11:21:00;34.40;54.90
19898;DHT22;10111;50.814;4.572;2022-07-19T11:23:35;34.30;55.30
19898;DHT22;10111;50.814;4.572;2022-07-19T11:26:17;34.40;56.30
19898;DHT22;10111;50.814;4.572;2022-07-19T11:28:44;34.50;53.70
19898;DHT22;10111;50.814;4.572;2022-07-19T11:33:37;34.50;53.70
19898;DHT22;10111;50.814;4.572;2022-07-19T11:36:03;34.50;53.90
19898;DHT22;10111;50.814;4.572;2022-07-19T11:38:47;34.60;53.60
19898;DHT22;10111;50.814;4.572;2022-07-19T11:41:18;34.60;54.20
19898;DHT22;10111;50.814;4.572;2022-07-19T11:44:13;34.60;53.30
19898;DHT22;10111;50.814;4.572;2022-07-19T11:46:39;34.70;54.20
19898;DHT22;10111;50.814;4.572;2022-07-19T11:49:10;34.70;54.40
19898;DHT22;10111;50.814;4.572;2022-07-19T11:51:36;34.70;53.60
19898;DHT22;10111;50.814;4.572;2022-07-19T11:54:04;34.60;54.80
19898;DHT22;10111;50.814;4.572;2022-07-19T11:56:31;34.60;56.50
19898;DHT22;10111;50.814;4.572;2022-07-19T11:59:00;34.50;53.90
19898;DHT22;10111;50.814;4.572;2022-07-19T12:03:56;34.50;56.30
19898;DHT22;10111;50.814;4.572;2022-07-19T12:06:38;34.50;55.30
19898;DHT22;10111;50.814;4.572;2022-07-19T12:11:43;34.40;54.80
19898;DHT22;10111;50.814;4.572;2022-07-19T12:14:23;34.50;55.40
19898;DHT22;10111;50.814;4.572;2022-07-19T12:16:50;34.60;54.60
19898;DHT22;10111;50.814;4.572;2022-07-19T12:19:16;34.70;53.60
19898;DHT22;10111;50.814;4.572;2022-07-19T12:21:45;34.60;52.10
19898;DHT22;10111;50.814;4.572;2022-07-19T12:24:21;34.70;53.80
19898;DHT22;10111;50.814;4.572;2022-07-19T12:26:59;34.70;54.20
19898;DHT22;10111;50.814;4.572;2022-07-19T12:32:13;34.70;52.70
19898;DHT22;10111;50.814;4.572;2022-07-19T12:34:49;34.70;52.40
19898;DHT22;10111;50.814;4.572;2022-07-19T12:40:02;34.70;54.90
19898;DHT22;10111;50.814;4.572;2022-07-19T12:42:50;34.70;56.10
19898;DHT22;10111;50.814;4.572;2022-07-19T12:45:21;34.80;51.90
19898;DHT22;10111;50.814;4.572;2022-07-19T12:47:49;35.00;50.90
19898;DHT22;10111;50.814;4.572;2022-07-19T12:52:56;35.10;51.30
19898;DHT22;10111;50.814;4.572;2022-07-19T12:55:24;35.20;50.40
19898;DHT22;10111;50.814;4.572;2022-07-19T12:57:51;35.20;50.10
19898;DHT22;10111;50.814;4.572;2022-07-19T13:00:19;35.30;50.00
19898;DHT22;10111;50.814;4.572;2022-07-19T13:02:46;35.30;50.30
19898;DHT22;10111;50.814;4.572;2022-07-19T13:05:12;35.20;49.60
19898;DHT22;10111;50.814;4.572;2022-07-19T13:07:38;35.20;51.50
19898;DHT22;10111;50.814;4.572;2022-07-19T13:10:04;35.20;52.60
19898;DHT22;10111;50.814;4.572;2022-07-19T13:12:30;35.10;51.60
19898;DHT22;10111;50.814;4.572;2022-07-19T13:14:56;35.10;51.50
19898;DHT22;10111;50.814;4.572;2022-07-19T13:17:22;35.10;52.80
19898;DHT22;10111;50.814;4.572;2022-07-19T13:19:48;35.10;50.60
19898;DHT22;10111;50.814;4.572;2022-07-19T13:22:13;35.00;50.20
19898;DHT22;10111;50.814;4.572;2022-07-19T13:24:39;35.10;49.30
19898;DHT22;10111;50.814;4.572;2022-07-19T13:27:05;35.10;51.50
19898;DHT22;10111;50.814;4.572;2022-07-19T13:29:31;35.10;51.00
19898;DHT22;10111;50.814;4.572;2022-07-19T13:31:57;35.10;51.10
19898;DHT22;10111;50.814;4.572;2022-07-19T13:34:24;35.20;47.50
19898;DHT22;10111;50.814;4.572;2022-07-19T13:36:50;35.10;50.10
19898;DHT22;10111;50.814;4.572;2022-07-19T13:39:16;35.10;51.90
19898;DHT22;10111;50.814;4.572;2022-07-19T13:41:42;35.10;50.20
19898;DHT22;10111;50.814;4.572;2022-07-19T13:44:08;35.20;47.20
19898;DHT22;10111;50.814;4.572;2022-07-19T13:46:34;35.40;47.20
19898;DHT22;10111;50.814;4.572;2022-07-19T13:49:00;35.40;48.60
19898;DHT22;10111;50.814;4.572;2022-07-19T13:51:26;35.40;45.90
19898;DHT22;10111;50.814;4.572;2022-07-19T13:53:53;35.30;48.20
19898;DHT22;10111;50.814;4.572;2022-07-19T13:56:20;35.30;47.10
19898;DHT22;10111;50.814;4.572;2022-07-19T13:58:46;35.50;45.70
19898;DHT22;10111;50.814;4.572;2022-07-19T14:01:12;35.50;50.30
19898;DHT22;10111;50.814;4.572;2022-07-19T14:03:38;35.40;50.60
19898;DHT22;10111;50.814;4.572;2022-07-19T14:06:04;35.30;48.60
19898;DHT22;10111;50.814;4.572;2022-07-19T14:08:29;35.40;47.10
19898;DHT22;10111;50.814;4.572;2022-07-19T14:10:55;35.40;46.90
19898;DHT22;10111;50.814;4.572;2022-07-19T14:13:21;35.40;46.90
19898;DHT22;10111;50.814;4.572;2022-07-19T14:15:46;35.40;48.80
19898;DHT22;10111;50.814;4.572;2022-07-19T14:18:12;35.50;46.00
19898;DHT22;10111;50.814;4.572;2022-07-19T14:20:42;35.50;45.30
19898;DHT22;10111;50.814;4.572;2022-07-19T14:23:09;35.40;48.60
19898;DHT22;10111;50.814;4.572;2022-07-19T14:25:35;35.20;46.10
19898;DHT22;10111;50.814;4.572;2022-07-19T14:28:01;35.10;47.20
19898;DHT22;10111;50.814;4.572;2022-07-19T14:30:26;35.10;48.40
19898;DHT22;10111;50.814;4.572;2022-07-19T14:32:52;35.30;44.80
19898;DHT22;10111;50.814;4.572;2022-07-19T14:35:18;35.30;44.80
19898;DHT22;10111;50.814;4.572;2022-07-19T14:37:44;35.30;48.00
19898;DHT22;10111;50.814;4.572;2022-07-19T14:40:11;35.20;44.70
19898;DHT22;10111;50.814;4.572;2022-07-19T14:42:38;35.30;43.10
19898;DHT22;10111;50.814;4.572;2022-07-19T14:45:05;35.40;43.00
19898;DHT22;10111;50.814;4.572;2022-07-19T14:47:32;35.40;44.90
19898;DHT22;10111;50.814;4.572;2022-07-19T14:49:58;35.40;44.30
19898;DHT22;10111;50.814;4.572;2022-07-19T14:52:24;35.30;42.90
19898;DHT22;10111;50.814;4.572;2022-07-19T14:54:49;35.30;43.90
19898;DHT22;10111;50.814;4.572;2022-07-19T14:57:15;35.20;44.60
19898;DHT22;10111;50.814;4.572;2022-07-19T14:59:40;35.20;44.40
19898;DHT22;10111;50.814;4.572;2022-07-19T15:02:06;35.10;44.50
19898;DHT22;10111;50.814;4.572;2022-07-19T15:04:34;35.20;42.00
19898;DHT22;10111;50.814;4.572;2022-07-19T15:07:00;35.10;44.10
19898;DHT22;10111;50.814;4.572;2022-07-19T15:09:25;35.20;45.40
19898;DHT22;10111;50.814;4.572;2022-07-19T15:11:51;35.30;42.70
19898;DHT22;10111;50.814;4.572;2022-07-19T15:14:17;35.30;43.60
19898;DHT22;10111;50.814;4.572;2022-07-19T15:16:43;35.40;44.20
19898;DHT22;10111;50.814;4.572;2022-07-19T15:19:08;35.30;45.90
19898;DHT22;10111;50.814;4.572;2022-07-19T15:21:34;35.30;43.40
19898;DHT22;10111;50.814;4.572;2022-07-19T15:24:01;35.40;43.70
19898;DHT22;10111;50.814;4.572;2022-07-19T15:26:28;35.40;44.50
19898;DHT22;10111;50.814;4.572;2022-07-19T15:28:54;35.40;46.50
19898;DHT22;10111;50.814;4.572;2022-07-19T15:31:20;35.30;46.30
19898;DHT22;10111;50.814;4.572;2022-07-19T15:33:46;35.50;43.80
19898;DHT22;10111;50.814;4.572;2022-07-19T15:36:11;35.40;46.50
19898;DHT22;10111;50.814;4.572;2022-07-19T15:38:37;35.50;43.70
19898;DHT22;10111;50.814;4.572;2022-07-19T15:41:03;35.40;44.40
19898;DHT22;10111;50.814;4.572;2022-07-19T15:43:28;35.40;44.60
19898;DHT22;10111;50.814;4.572;2022-07-19T15:45:54;35.50;43.20
19898;DHT22;10111;50.814;4.572;2022-07-19T15:48:20;35.70;42.90
19898;DHT22;10111;50.814;4.572;2022-07-19T15:50:46;35.60;43.80
19898;DHT22;10111;50.814;4.572;2022-07-19T15:53:12;35.40;45.30
19898;DHT22;10111;50.814;4.572;2022-07-19T15:55:37;35.40;45.70
19898;DHT22;10111;50.814;4.572;2022-07-19T15:58:03;35.30;44.50
19898;DHT22;10111;50.814;4.572;2022-07-19T16:00:29;35.10;44.80
19898;DHT22;10111;50.814;4.572;2022-07-19T16:02:56;35.10;45.70
19898;DHT22;10111;50.814;4.572;2022-07-19T16:05:21;35.10;45.80
19898;DHT22;10111;50.814;4.572;2022-07-19T16:07:47;35.00;45.30
19898;DHT22;10111;50.814;4.572;2022-07-19T16:10:13;35.00;45.30
19898;DHT22;10111;50.814;4.572;2022-07-19T16:12:40;35.10;45.20
19898;DHT22;10111;50.814;4.572;2022-07-19T16:15:07;35.20;43.50